sensor_id;sensor_type;location;lat;lon;timestamp;temperature;humidity
58339;DHT22;68636;52.704;6.536;2023-04-24T00:00:26;10.00;99.90
58339;DHT22;68636;52.704;6.536;2023-04-24T00:02:51;10.00;99.90
58339;DHT22;68636;52.704;6.536;2023-04-24T00:05:17;10.00;99.90
58339;DHT22;68636;52.704;6.536;2023-04-24T00:07:44;10.00;99.90
58339;DHT22;68636;52.704;6.536;2023-04-24T00:10:11;10.00;99.90
58339;DHT22;68636;52.704;6.536;2023-04-24T00:12:37;10.00;99.90
58339;DHT22;68636;52.704;6.536;2023-04-24T00:15:04;10.00;99.90
58339;DHT22;68636;52.704;6.536;2023-04-24T00:17:30;10.00;99.90
58339;DHT22;68636;52.704;6.536;2023-04-24T00:19:56;10.00;99.90
58339;DHT22;68636;52.704;6.536;2023-04-24T00:22:28;10.10;99.90
58339;DHT22;68636;52.704;6.536;2023-04-24T00:24:54;10.10;99.90
58339;DHT22;68636;52.704;6.536;2023-04-24T00:27:20;10.10;99.90
58339;DHT22;68636;52.704;6.536;2023-04-24T00:29:46;10.10;99.90
58339;DHT22;68636;52.704;6.536;2023-04-24T00:32:12;10.10;99.90
58339;DHT22;68636;52.704;6.536;2023-04-24T00:34:37;10.10;99.90
58339;DHT22;68636;52.704;6.536;2023-04-24T00:37:03;10.10;99.90
58339;DHT22;68636;52.704;6.536;2023-04-24T00:39:29;10.10;99.90
58339;DHT22;68636;52.704;6.536;2023-04-24T00:41:55;10.10;99.90
58339;DHT22;68636;52.704;6.536;2023-04-24T00:44:22;10.10;99.90
58339;DHT22;68636;52.704;6.536;2023-04-24T00:46:48;10.10;99.90
58339;DHT22;68636;52.704;6.536;2023-04-24T00:49:21;10.10;99.90
58339;DHT22;68636;52.704;6.536;2023-04-24T00:51:47;10.20;99.90
58339;DHT22;68636;52.704;6.536;2023-04-24T00:54:15;10.20;99.90
58339;DHT22;68636;52.704;6.536;2023-04-24T00:56:41;10.20;99.90
58339;DHT22;68636;52.704;6.536;2023-04-24T00:59:08;10.30;99.90
58339;DHT22;68636;52.704;6.536;2023-04-24T01:01:34;10.30;99.90
58339;DHT22;68636;52.704;6.536;2023-04-24T01:04:00;10.20;99.90
58339;DHT22;68636;52.704;6.536;2023-04-24T01:06:28;10.10;99.90
58339;DHT22;68636;52.704;6.536;2023-04-24T01:08:54;10.10;99.90
58339;DHT22;68636;52.704;6.536;2023-04-24T01:11:24;10.20;99.90
58339;DHT22;68636;52.704;6.536;2023-04-24T01:13:51;10.10;99.90
58339;DHT22;68636;52.704;6.536;2023-04-24T01:16:17;10.00;99.90
58339;DHT22;68636;52.704;6.536;2023-04-24T01:18:45;10.00;99.90
58339;DHT22;68636;52.704;6.536;2023-04-24T01:21:14;10.00;99.90
58339;DHT22;68636;52.704;6.536;2023-04-24T01:23:40;9.90;99.90
58339;DHT22;68636;52.704;6.536;2023-04-24T01:26:06;9.90;99.90
58339;DHT22;68636;52.704;6.536;2023-04-24T01:28:32;9.90;99.90
58339;DHT22;68636;52.704;6.536;2023-04-24T01:30:58;9.90;99.90
58339;DHT22;68636;52.704;6.536;2023-04-24T01:33:25;9.80;99.90
58339;DHT22;68636;52.704;6.536;2023-04-24T01:35:51;9.80;99.90
58339;DHT22;68636;52.704;6.536;2023-04-24T01:38:17;9.70;99.90
58339;DHT22;68636;52.704;6.536;2023-04-24T01:40:43;9.70;99.90
58339;DHT22;68636;52.704;6.536;2023-04-24T01:43:09;9.70;99.90
58339;DHT22;68636;52.704;6.536;2023-04-24T01:45:35;9.60;99.90
58339;DHT22;68636;52.704;6.536;2023-04-24T01:48:01;9.70;99.90
58339;DHT22;68636;52.704;6.536;2023-04-24T01:50:27;9.70;99.90
58339;DHT22;68636;52.704;6.536;2023-04-24T01:52:52;9.60;99.90
58339;DHT22;68636;52.704;6.536;2023-04-24T01:55:18;9.60;99.90
58339;DHT22;68636;52.704;6.536;2023-04-24T01:57:44;9.60;99.90
58339;DHT22;68636;52.704;6.536;2023-04-24T02:00:10;9.60;99.90
58339;DHT22;68636;52.704;6.536;2023-04-24T02:02:37;9.50;99.90
58339;DHT22;68636;52.704;6.536;2023-04-24T02:05:06;9.50;99.90
58339;DHT22;68636;52.704;6.536;2023-04-24T02:07:32;9.50;99.90
58339;DHT22;68636;52.704;6.536;2023-04-24T02:09:58;9.50;99.90
58339;DHT22;68636;52.704;6.536;2023-04-24T02:12:24;9.50;99.90
58339;DHT22;68636;52.704;6.536;2023-04-24T02:14:50;9.50;99.90
58339;DHT22;68636;52.704;6.536;2023-04-24T02:17:17;9.50;99.90
58339;DHT22;68636;52.704;6.536;2023-04-24T02:19:44;9.50;99.90
58339;DHT22;68636;52.704;6.536;2023-04-24T02:22:11;9.50;99.90
58339;DHT22;68636;52.704;6.536;2023-04-24T02:24:37;9.40;99.90
58339;DHT22;68636;52.704;6.536;2023-04-24T02:27:03;9.40;99.90
58339;DHT22;68636;52.704;6.536;2023-04-24T02:29:29;9.40;99.90
58339;DHT22;68636;52.704;6.536;2023-04-24T02:31:55;9.50;99.90
58339;DHT22;68636;52.704;6.536;2023-04-24T02:34:20;9.40;99.90
58339;DHT22;68636;52.704;6.536;2023-04-24T02:36:46;9.40;99.90
58339;DHT22;68636;52.704;6.536;2023-04-24T02:39:12;9.50;99.90
58339;DHT22;68636;52.704;6.536;2023-04-24T02:41:38;9.50;99.90
58339;DHT22;68636;52.704;6.536;2023-04-24T02:44:04;9.50;99.90
58339;DHT22;68636;52.704;6.536;2023-04-24T02:46:30;9.50;99.90
58339;DHT22;68636;52.704;6.536;2023-04-24T02:48:56;9.50;99.90
58339;DHT22;68636;52.704;6.536;2023-04-24T02:51:21;9.50;99.90
58339;DHT22;68636;52.704;6.536;2023-04-24T02:53:47;9.50;99.90
58339;DHT22;68636;52.704;6.536;2023-04-24T02:56:13;9.50;99.90
58339;DHT22;68636;52.704;6.536;2023-04-24T02:58:38;9.50;99.90
58339;DHT22;68636;52.704;6.536;2023-04-24T03:01:04;9.50;99.90
58339;DHT22;68636;52.704;6.536;2023-04-24T03:03:30;9.50;99.90
58339;DHT22;68636;52.704;6.536;2023-04-24T03:05:56;9.50;99.90
58339;DHT22;68636;52.704;6.536;2023-04-24T03:08:22;9.50;99.90
58339;DHT22;68636;52.704;6.536;2023-04-24T03:10:48;9.50;99.90
58339;DHT22;68636;52.704;6.536;2023-04-24T03:13:15;9.40;99.90
58339;DHT22;68636;52.704;6.536;2023-04-24T03:15:41;9.40;99.90
58339;DHT22;68636;52.704;6.536;2023-04-24T03:18:07;9.40;99.90
58339;DHT22;68636;52.704;6.536;2023-04-24T03:20:33;9.40;99.90
58339;DHT22;68636;52.704;6.536;2023-04-24T03:22:59;9.40;99.90
58339;DHT22;68636;52.704;6.536;2023-04-24T03:25:25;9.40;99.90
58339;DHT22;68636;52.704;6.536;2023-04-24T03:27:51;9.40;99.90
58339;DHT22;68636;52.704;6.536;2023-04-24T03:30:17;9.40;99.90
58339;DHT22;68636;52.704;6.536;2023-04-24T03:32:42;9.30;99.90
58339;DHT22;68636;52.704;6.536;2023-04-24T03:35:08;9.30;99.90
58339;DHT22;68636;52.704;6.536;2023-04-24T03:37:34;9.30;99.90
58339;DHT22;68636;52.704;6.536;2023-04-24T03:40:01;9.30;99.90
58339;DHT22;68636;52.704;6.536;2023-04-24T03:42:27;9.30;99.90
58339;DHT22;68636;52.704;6.536;2023-04-24T03:44:52;9.30;99.90
58339;DHT22;68636;52.704;6.536;2023-04-24T03:47:18;9.20;99.90
58339;DHT22;68636;52.704;6.536;2023-04-24T03:49:44;9.20;99.90
58339;DHT22;68636;52.704;6.536;2023-04-24T03:52:09;9.20;99.90
58339;DHT22;68636;52.704;6.536;2023-04-24T03:54:35;9.20;99.90
58339;DHT22;68636;52.704;6.536;2023-04-24T03:57:01;9.20;99.90
58339;DHT22;68636;52.704;6.536;2023-04-24T03:59:27;9.10;99.90
58339;DHT22;68636;52.704;6.536;2023-04-24T04:01:52;9.10;99.90
58339;DHT22;68636;52.704;6.536;2023-04-24T04:04:18;9.10;99.90
58339;DHT22;68636;52.704;6.536;2023-04-24T04:06:44;9.10;99.90
58339;DHT22;68636;52.704;6.536;2023-04-24T04:09:10;9.10;99.90
58339;DHT22;68636;52.704;6.536;2023-04-24T04:11:36;9.10;99.90
58339;DHT22;68636;52.704;6.536;2023-04-24T04:14:02;9.20;99.90
58339;DHT22;68636;52.704;6.536;2023-04-24T04:16:28;9.10;99.90
58339;DHT22;68636;52.704;6.536;2023-04-24T04:18:53;9.10;99.90
58339;DHT22;68636;52.704;6.536;2023-04-24T04:21:19;9.10;99.90
58339;DHT22;68636;52.704;6.536;2023-04-24T04:23:45;9.00;99.90
58339;DHT22;68636;52.704;6.536;2023-04-24T04:26:11;9.00;99.90
58339;DHT22;68636;52.704;6.536;2023-04-24T04:28:38;9.00;99.90
58339;DHT22;68636;52.704;6.536;2023-04-24T04:31:05;9.00;99.90
58339;DHT22;68636;52.704;6.536;2023-04-24T04:33:33;8.90;99.90
58339;DHT22;68636;52.704;6.536;2023-04-24T04:35:59;8.90;99.90
58339;DHT22;68636;52.704;6.536;2023-04-24T04:38:26;8.90;99.90
58339;DHT22;68636;52.704;6.536;2023-04-24T04:40:55;8.90;99.90
58339;DHT22;68636;52.704;6.536;2023-04-24T04:43:24;8.90;99.90
58339;DHT22;68636;52.704;6.536;2023-04-24T04:45:51;8.80;99.90
58339;DHT22;68636;52.704;6.536;2023-04-24T04:48:17;8.80;99.90
58339;DHT22;68636;52.704;6.536;2023-04-24T04:50:44;8.80;99.90
58339;DHT22;68636;52.704;6.536;2023-04-24T04:53:09;8.80;99.90
58339;DHT22;68636;52.704;6.536;2023-04-24T04:55:36;8.80;99.90
58339;DHT22;68636;52.704;6.536;2023-04-24T04:58:02;8.80;99.90
58339;DHT22;68636;52.704;6.536;2023-04-24T05:00:28;8.80;99.90
58339;DHT22;68636;52.704;6.536;2023-04-24T05:02:59;8.80;99.90
58339;DHT22;68636;52.704;6.536;2023-04-24T05:05:25;8.80;99.90
58339;DHT22;68636;52.704;6.536;2023-04-24T05:07:51;8.80;99.90
58339;DHT22;68636;52.704;6.536;2023-04-24T05:10:17;8.90;99.90
58339;DHT22;68636;52.704;6.536;2023-04-24T05:12:43;8.90;99.90
58339;DHT22;68636;52.704;6.536;2023-04-24T05:15:08;8.90;99.90
58339;DHT22;68636;52.704;6.536;2023-04-24T05:17:35;8.90;99.90
58339;DHT22;68636;52.704;6.536;2023-04-24T05:20:01;8.90;99.90
58339;DHT22;68636;52.704;6.536;2023-04-24T05:22:26;8.90;99.90
58339;DHT22;68636;52.704;6.536;2023-04-24T05:24:52;8.90;99.90
58339;DHT22;68636;52.704;6.536;2023-04-24T05:27:19;8.90;99.90
58339;DHT22;68636;52.704;6.536;2023-04-24T05:29:44;8.90;99.90
58339;DHT22;68636;52.704;6.536;2023-04-24T05:32:10;8.90;99.90
58339;DHT22;68636;52.704;6.536;2023-04-24T05:34:36;8.90;99.90
58339;DHT22;68636;52.704;6.536;2023-04-24T05:37:02;8.90;99.90
58339;DHT22;68636;52.704;6.536;2023-04-24T05:39:28;8.90;99.90
58339;DHT22;68636;52.704;6.536;2023-04-24T05:41:54;8.90;99.90
58339;DHT22;68636;52.704;6.536;2023-04-24T05:44:23;9.00;99.90
58339;DHT22;68636;52.704;6.536;2023-04-24T05:46:49;9.00;99.90
58339;DHT22;68636;52.704;6.536;2023-04-24T05:49:14;9.00;99.90
58339;DHT22;68636;52.704;6.536;2023-04-24T05:51:40;9.00;99.90
58339;DHT22;68636;52.704;6.536;2023-04-24T05:54:06;9.00;99.90
58339;DHT22;68636;52.704;6.536;2023-04-24T05:56:32;9.10;99.90
58339;DHT22;68636;52.704;6.536;2023-04-24T05:58:58;9.20;99.90
58339;DHT22;68636;52.704;6.536;2023-04-24T06:01:24;9.20;99.90
58339;DHT22;68636;52.704;6.536;2023-04-24T06:03:50;9.20;99.90
58339;DHT22;68636;52.704;6.536;2023-04-24T06:06:16;9.30;99.90
58339;DHT22;68636;52.704;6.536;2023-04-24T06:08:42;9.40;99.90
58339;DHT22;68636;52.704;6.536;2023-04-24T06:11:09;9.40;99.90
58339;DHT22;68636;52.704;6.536;2023-04-24T06:13:35;9.50;99.90
58339;DHT22;68636;52.704;6.536;2023-04-24T06:16:01;9.50;99.90
58339;DHT22;68636;52.704;6.536;2023-04-24T06:18:27;9.50;99.90
58339;DHT22;68636;52.704;6.536;2023-04-24T06:20:52;9.60;99.90
58339;DHT22;68636;52.704;6.536;2023-04-24T06:23:18;9.60;99.90
58339;DHT22;68636;52.704;6.536;2023-04-24T06:25:44;9.60;99.90
58339;DHT22;68636;52.704;6.536;2023-04-24T06:28:09;9.60;99.90
58339;DHT22;68636;52.704;6.536;2023-04-24T06:30:35;9.60;99.90
58339;DHT22;68636;52.704;6.536;2023-04-24T06:33:01;9.60;99.90
58339;DHT22;68636;52.704;6.536;2023-04-24T06:35:27;9.60;99.90
58339;DHT22;68636;52.704;6.536;2023-04-24T06:37:53;9.50;99.90
58339;DHT22;68636;52.704;6.536;2023-04-24T06:40:18;9.40;99.90
58339;DHT22;68636;52.704;6.536;2023-04-24T06:42:44;9.40;99.90
58339;DHT22;68636;52.704;6.536;2023-04-24T06:45:10;9.30;99.90
58339;DHT22;68636;52.704;6.536;2023-04-24T06:47:36;9.30;99.90
58339;DHT22;68636;52.704;6.536;2023-04-24T06:50:03;9.30;99.90
58339;DHT22;68636;52.704;6.536;2023-04-24T06:52:29;9.30;99.90
58339;DHT22;68636;52.704;6.536;2023-04-24T06:55:02;9.30;99.90
58339;DHT22;68636;52.704;6.536;2023-04-24T06:57:28;9.30;99.90
58339;DHT22;68636;52.704;6.536;2023-04-24T06:59:55;9.40;99.90
58339;DHT22;68636;52.704;6.536;2023-04-24T07:02:21;9.50;99.90
58339;DHT22;68636;52.704;6.536;2023-04-24T07:04:46;9.50;99.90
58339;DHT22;68636;52.704;6.536;2023-04-24T07:07:13;9.50;99.90
58339;DHT22;68636;52.704;6.536;2023-04-24T07:09:40;9.50;99.90
58339;DHT22;68636;52.704;6.536;2023-04-24T07:12:11;9.50;99.90
58339;DHT22;68636;52.704;6.536;2023-04-24T07:14:37;9.50;99.90
58339;DHT22;68636;52.704;6.536;2023-04-24T07:17:04;9.50;99.90
58339;DHT22;68636;52.704;6.536;2023-04-24T07:19:29;9.50;99.90
58339;DHT22;68636;52.704;6.536;2023-04-24T07:21:55;9.50;99.90
58339;DHT22;68636;52.704;6.536;2023-04-24T07:24:21;9.50;99.90
58339;DHT22;68636;52.704;6.536;2023-04-24T07:26:46;9.50;99.90
58339;DHT22;68636;52.704;6.536;2023-04-24T07:29:13;9.60;99.90
58339;DHT22;68636;52.704;6.536;2023-04-24T07:31:39;9.60;99.90
58339;DHT22;68636;52.704;6.536;2023-04-24T07:34:06;9.70;99.90
58339;DHT22;68636;52.704;6.536;2023-04-24T07:36:32;9.60;99.90
58339;DHT22;68636;52.704;6.536;2023-04-24T07:38:58;9.70;99.90
58339;DHT22;68636;52.704;6.536;2023-04-24T07:41:23;9.70;99.90
58339;DHT22;68636;52.704;6.536;2023-04-24T07:43:49;9.70;99.90
58339;DHT22;68636;52.704;6.536;2023-04-24T07:46:15;9.70;99.90
58339;DHT22;68636;52.704;6.536;2023-04-24T07:48:41;9.70;99.90
58339;DHT22;68636;52.704;6.536;2023-04-24T07:51:07;9.70;99.90
58339;DHT22;68636;52.704;6.536;2023-04-24T07:53:35;9.70;99.90
58339;DHT22;68636;52.704;6.536;2023-04-24T07:56:01;9.70;99.90
58339;DHT22;68636;52.704;6.536;2023-04-24T07:58:27;9.70;99.90
58339;DHT22;68636;52.704;6.536;2023-04-24T08:00:52;9.60;99.90
58339;DHT22;68636;52.704;6.536;2023-04-24T08:03:18;9.60;99.90
58339;DHT22;68636;52.704;6.536;2023-04-24T08:05:45;9.60;99.90
58339;DHT22;68636;52.704;6.536;2023-04-24T08:08:11;9.60;99.90
58339;DHT22;68636;52.704;6.536;2023-04-24T08:10:37;9.50;99.90
58339;DHT22;68636;52.704;6.536;2023-04-24T08:13:02;9.50;99.90
58339;DHT22;68636;52.704;6.536;2023-04-24T08:15:28;9.50;99.90
58339;DHT22;68636;52.704;6.536;2023-04-24T08:17:54;9.40;99.90
58339;DHT22;68636;52.704;6.536;2023-04-24T08:20:20;9.40;99.90
58339;DHT22;68636;52.704;6.536;2023-04-24T08:22:45;9.40;99.90
58339;DHT22;68636;52.704;6.536;2023-04-24T08:25:13;9.40;99.90
58339;DHT22;68636;52.704;6.536;2023-04-24T08:27:38;9.30;99.90
58339;DHT22;68636;52.704;6.536;2023-04-24T08:30:05;9.20;99.90
58339;DHT22;68636;52.704;6.536;2023-04-24T08:32:31;9.30;99.90
58339;DHT22;68636;52.704;6.536;2023-04-24T08:34:57;9.10;99.90
58339;DHT22;68636;52.704;6.536;2023-04-24T08:37:23;9.10;99.90
58339;DHT22;68636;52.704;6.536;2023-04-24T08:39:50;9.00;99.90
58339;DHT22;68636;52.704;6.536;2023-04-24T08:42:17;8.90;99.90
58339;DHT22;68636;52.704;6.536;2023-04-24T08:44:43;9.00;99.90
58339;DHT22;68636;52.704;6.536;2023-04-24T08:47:10;8.80;99.90
58339;DHT22;68636;52.704;6.536;2023-04-24T08:49:37;8.80;99.90
58339;DHT22;68636;52.704;6.536;2023-04-24T08:52:05;8.70;99.90
58339;DHT22;68636;52.704;6.536;2023-04-24T08:54:31;8.80;99.90
58339;DHT22;68636;52.704;6.536;2023-04-24T08:57:01;8.70;99.90
58339;DHT22;68636;52.704;6.536;2023-04-24T08:59:31;8.80;99.90
58339;DHT22;68636;52.704;6.536;2023-04-24T09:01:58;8.70;99.90
58339;DHT22;68636;52.704;6.536;2023-04-24T09:04:24;8.70;99.90
58339;DHT22;68636;52.704;6.536;2023-04-24T09:06:58;8.70;99.90
58339;DHT22;68636;52.704;6.536;2023-04-24T09:09:24;8.60;99.90
58339;DHT22;68636;52.704;6.536;2023-04-24T09:11:51;8.50;99.90
58339;DHT22;68636;52.704;6.536;2023-04-24T09:14:19;8.50;99.90
58339;DHT22;68636;52.704;6.536;2023-04-24T09:16:46;8.40;99.90
58339;DHT22;68636;52.704;6.536;2023-04-24T09:19:12;8.40;99.90
58339;DHT22;68636;52.704;6.536;2023-04-24T09:21:38;8.40;99.90
58339;DHT22;68636;52.704;6.536;2023-04-24T09:24:07;8.50;99.90
58339;DHT22;68636;52.704;6.536;2023-04-24T09:26:35;8.50;99.90
58339;DHT22;68636;52.704;6.536;2023-04-24T09:29:03;8.50;99.90
58339;DHT22;68636;52.704;6.536;2023-04-24T09:31:29;8.50;99.90
58339;DHT22;68636;52.704;6.536;2023-04-24T09:36:32;8.50;99.90
58339;DHT22;68636;52.704;6.536;2023-04-24T09:39:15;8.50;99.90
58339;DHT22;68636;52.704;6.536;2023-04-24T09:44:16;8.50;99.90
58339;DHT22;68636;52.704;6.536;2023-04-24T09:46:44;8.50;99.90
58339;DHT22;68636;52.704;6.536;2023-04-24T09:49:14;8.50;99.90
58339;DHT22;68636;52.704;6.536;2023-04-24T09:51:41;8.50;99.90
58339;DHT22;68636;52.704;6.536;2023-04-24T09:54:20;8.60;99.90
58339;DHT22;68636;52.704;6.536;2023-04-24T09:56:48;8.60;99.90
58339;DHT22;68636;52.704;6.536;2023-04-24T09:59:18;8.70;99.90
58339;DHT22;68636;52.704;6.536;2023-04-24T10:01:44;8.80;99.90
58339;DHT22;68636;52.704;6.536;2023-04-24T10:06:47;9.00;99.90
58339;DHT22;68636;52.704;6.536;2023-04-24T10:09:15;9.10;99.90
58339;DHT22;68636;52.704;6.536;2023-04-24T10:11:42;9.20;99.90
58339;DHT22;68636;52.704;6.536;2023-04-24T10:14:11;9.20;99.90
58339;DHT22;68636;52.704;6.536;2023-04-24T10:16:39;9.10;99.90
58339;DHT22;68636;52.704;6.536;2023-04-24T10:19:06;9.00;99.90
58339;DHT22;68636;52.704;6.536;2023-04-24T10:21:32;9.00;99.90
58339;DHT22;68636;52.704;6.536;2023-04-24T10:23:59;8.90;99.90
58339;DHT22;68636;52.704;6.536;2023-04-24T10:26:29;8.70;99.90
58339;DHT22;68636;52.704;6.536;2023-04-24T10:28:57;8.60;99.90
58339;DHT22;68636;52.704;6.536;2023-04-24T10:31:24;8.30;99.90
58339;DHT22;68636;52.704;6.536;2023-04-24T10:33:51;8.10;99.90
58339;DHT22;68636;52.704;6.536;2023-04-24T10:36:19;7.90;99.90
58339;DHT22;68636;52.704;6.536;2023-04-24T10:38:47;7.90;99.90
58339;DHT22;68636;52.704;6.536;2023-04-24T10:41:15;7.90;99.90
58339;DHT22;68636;52.704;6.536;2023-04-24T10:43:46;7.90;99.90
58339;DHT22;68636;52.704;6.536;2023-04-24T10:46:19;7.90;99.90
58339;DHT22;68636;52.704;6.536;2023-04-24T10:48:55;7.90;99.90
58339;DHT22;68636;52.704;6.536;2023-04-24T10:51:23;7.80;99.90
58339;DHT22;68636;52.704;6.536;2023-04-24T10:53:51;7.90;99.90
58339;DHT22;68636;52.704;6.536;2023-04-24T10:56:18;8.00;99.90
58339;DHT22;68636;52.704;6.536;2023-04-24T10:58:51;8.00;99.90
58339;DHT22;68636;52.704;6.536;2023-04-24T11:01:38;8.10;99.90
58339;DHT22;68636;52.704;6.536;2023-04-24T11:04:03;8.10;99.90
58339;DHT22;68636;52.704;6.536;2023-04-24T11:06:34;8.10;99.90
58339;DHT22;68636;52.704;6.536;2023-04-24T11:09:08;8.20;99.90
58339;DHT22;68636;52.704;6.536;2023-04-24T11:11:36;8.30;99.90
58339;DHT22;68636;52.704;6.536;2023-04-24T11:14:05;8.50;99.90
58339;DHT22;68636;52.704;6.536;2023-04-24T11:16:35;8.70;99.90
58339;DHT22;68636;52.704;6.536;2023-04-24T11:22:01;9.00;99.90
58339;DHT22;68636;52.704;6.536;2023-04-24T11:29:42;9.20;99.90
58339;DHT22;68636;52.704;6.536;2023-04-24T11:35:24;9.20;99.90
58339;DHT22;68636;52.704;6.536;2023-04-24T11:37:52;9.10;99.90
58339;DHT22;68636;52.704;6.536;2023-04-24T11:40:20;8.90;99.90
58339;DHT22;68636;52.704;6.536;2023-04-24T11:42:49;8.80;99.90
58339;DHT22;68636;52.704;6.536;2023-04-24T11:45:22;8.70;99.90
58339;DHT22;68636;52.704;6.536;2023-04-24T11:47:48;8.60;99.90
58339;DHT22;68636;52.704;6.536;2023-04-24T11:50:17;8.50;99.90
58339;DHT22;68636;52.704;6.536;2023-04-24T11:52:45;8.50;99.90
58339;DHT22;68636;52.704;6.536;2023-04-24T11:57:43;8.90;99.90
58339;DHT22;68636;52.704;6.536;2023-04-24T12:00:16;9.00;99.90
58339;DHT22;68636;52.704;6.536;2023-04-24T12:02:42;9.00;99.90
58339;DHT22;68636;52.704;6.536;2023-04-24T12:05:08;9.00;99.90
58339;DHT22;68636;52.704;6.536;2023-04-24T12:07:41;8.90;99.90
58339;DHT22;68636;52.704;6.536;2023-04-24T12:10:10;8.90;99.90
58339;DHT22;68636;52.704;6.536;2023-04-24T12:12:36;8.90;99.90
58339;DHT22;68636;52.704;6.536;2023-04-24T12:15:07;9.00;99.90
58339;DHT22;68636;52.704;6.536;2023-04-24T12:17:34;9.20;99.90
58339;DHT22;68636;52.704;6.536;2023-04-24T12:20:04;9.20;99.90
58339;DHT22;68636;52.704;6.536;2023-04-24T12:22:51;9.20;99.90
58339;DHT22;68636;52.704;6.536;2023-04-24T12:25:19;9.20;99.90
58339;DHT22;68636;52.704;6.536;2023-04-24T12:27:51;9.20;99.90
58339;DHT22;68636;52.704;6.536;2023-04-24T12:30:17;9.30;99.90
58339;DHT22;68636;52.704;6.536;2023-04-24T12:32:47;9.50;99.90
58339;DHT22;68636;52.704;6.536;2023-04-24T12:35:13;9.50;99.90
58339;DHT22;68636;52.704;6.536;2023-04-24T12:37:42;9.40;99.90
58339;DHT22;68636;52.704;6.536;2023-04-24T12:40:12;9.30;99.90
58339;DHT22;68636;52.704;6.536;2023-04-24T12:42:49;9.20;99.90
58339;DHT22;68636;52.704;6.536;2023-04-24T12:45:15;8.90;99.90
58339;DHT22;68636;52.704;6.536;2023-04-24T12:47:42;8.80;99.90
58339;DHT22;68636;52.704;6.536;2023-04-24T12:50:14;8.80;99.90
58339;DHT22;68636;52.704;6.536;2023-04-24T12:52:40;8.80;99.90
58339;DHT22;68636;52.704;6.536;2023-04-24T12:55:07;8.90;99.90
58339;DHT22;68636;52.704;6.536;2023-04-24T12:57:37;8.80;99.90
58339;DHT22;68636;52.704;6.536;2023-04-24T13:00:05;9.00;99.90
58339;DHT22;68636;52.704;6.536;2023-04-24T13:02:31;9.00;99.90
58339;DHT22;68636;52.704;6.536;2023-04-24T13:05:00;9.10;99.90
58339;DHT22;68636;52.704;6.536;2023-04-24T13:07:27;9.10;99.90
58339;DHT22;68636;52.704;6.536;2023-04-24T13:09:53;9.20;99.90
58339;DHT22;68636;52.704;6.536;2023-04-24T13:12:19;9.10;99.90
58339;DHT22;68636;52.704;6.536;2023-04-24T13:14:45;9.20;99.90
58339;DHT22;68636;52.704;6.536;2023-04-24T13:17:12;9.20;99.90
58339;DHT22;68636;52.704;6.536;2023-04-24T13:19:43;9.20;99.90
58339;DHT22;68636;52.704;6.536;2023-04-24T13:22:10;9.10;99.90
58339;DHT22;68636;52.704;6.536;2023-04-24T13:24:36;9.00;99.90
58339;DHT22;68636;52.704;6.536;2023-04-24T13:27:03;9.00;99.90
58339;DHT22;68636;52.704;6.536;2023-04-24T13:29:29;8.90;99.90
58339;DHT22;68636;52.704;6.536;2023-04-24T13:31:55;8.90;99.90
58339;DHT22;68636;52.704;6.536;2023-04-24T13:34:22;9.00;99.90
58339;DHT22;68636;52.704;6.536;2023-04-24T13:36:49;9.00;99.90
58339;DHT22;68636;52.704;6.536;2023-04-24T13:39:15;9.00;99.90
58339;DHT22;68636;52.704;6.536;2023-04-24T13:41:41;8.90;99.90
58339;DHT22;68636;52.704;6.536;2023-04-24T13:44:07;8.90;99.90
58339;DHT22;68636;52.704;6.536;2023-04-24T13:46:33;8.80;99.90
58339;DHT22;68636;52.704;6.536;2023-04-24T13:48:59;8.90;99.90
58339;DHT22;68636;52.704;6.536;2023-04-24T13:51:28;8.90;99.90
58339;DHT22;68636;52.704;6.536;2023-04-24T13:53:54;9.00;99.90
58339;DHT22;68636;52.704;6.536;2023-04-24T13:56:20;9.10;99.90
58339;DHT22;68636;52.704;6.536;2023-04-24T13:58:46;9.10;99.90
58339;DHT22;68636;52.704;6.536;2023-04-24T14:01:13;9.10;99.90
58339;DHT22;68636;52.704;6.536;2023-04-24T14:03:40;9.00;99.90
58339;DHT22;68636;52.704;6.536;2023-04-24T14:06:06;8.90;99.90
58339;DHT22;68636;52.704;6.536;2023-04-24T14:08:32;8.90;99.90
58339;DHT22;68636;52.704;6.536;2023-04-24T14:10:58;8.80;99.90
58339;DHT22;68636;52.704;6.536;2023-04-24T14:13:24;8.70;99.90
58339;DHT22;68636;52.704;6.536;2023-04-24T14:15:50;8.60;99.90
58339;DHT22;68636;52.704;6.536;2023-04-24T14:18:16;8.60;99.90
58339;DHT22;68636;52.704;6.536;2023-04-24T14:20:42;8.50;99.90
58339;DHT22;68636;52.704;6.536;2023-04-24T14:23:08;8.50;99.90
58339;DHT22;68636;52.704;6.536;2023-04-24T14:25:34;8.70;99.90
58339;DHT22;68636;52.704;6.536;2023-04-24T14:27:59;8.80;99.90
58339;DHT22;68636;52.704;6.536;2023-04-24T14:30:25;8.80;99.90
58339;DHT22;68636;52.704;6.536;2023-04-24T14:32:51;8.70;99.90
58339;DHT22;68636;52.704;6.536;2023-04-24T14:35:17;8.60;99.90
58339;DHT22;68636;52.704;6.536;2023-04-24T14:37:42;8.50;99.90
58339;DHT22;68636;52.704;6.536;2023-04-24T14:40:09;8.60;99.90
58339;DHT22;68636;52.704;6.536;2023-04-24T14:42:35;8.70;99.90
58339;DHT22;68636;52.704;6.536;2023-04-24T14:45:01;8.70;99.90
58339;DHT22;68636;52.704;6.536;2023-04-24T14:47:27;8.80;99.90
58339;DHT22;68636;52.704;6.536;2023-04-24T14:49:53;8.80;99.90
58339;DHT22;68636;52.704;6.536;2023-04-24T14:52:19;8.80;99.90
58339;DHT22;68636;52.704;6.536;2023-04-24T14:54:45;8.90;99.90
58339;DHT22;68636;52.704;6.536;2023-04-24T14:57:11;9.00;99.90
58339;DHT22;68636;52.704;6.536;2023-04-24T14:59:36;9.00;99.90
58339;DHT22;68636;52.704;6.536;2023-04-24T15:02:02;9.10;99.90
58339;DHT22;68636;52.704;6.536;2023-04-24T15:04:28;9.00;99.90
58339;DHT22;68636;52.704;6.536;2023-04-24T15:06:55;9.00;99.90
58339;DHT22;68636;52.704;6.536;2023-04-24T15:09:22;9.00;99.90
58339;DHT22;68636;52.704;6.536;2023-04-24T15:11:48;8.90;99.90
58339;DHT22;68636;52.704;6.536;2023-04-24T15:14:15;8.90;99.90
58339;DHT22;68636;52.704;6.536;2023-04-24T15:16:41;8.90;99.90
58339;DHT22;68636;52.704;6.536;2023-04-24T15:19:07;9.00;99.90
58339;DHT22;68636;52.704;6.536;2023-04-24T15:21:33;9.20;99.90
58339;DHT22;68636;52.704;6.536;2023-04-24T15:23:59;9.40;99.90
58339;DHT22;68636;52.704;6.536;2023-04-24T15:26:25;9.50;99.90
58339;DHT22;68636;52.704;6.536;2023-04-24T15:28:51;9.60;99.90
58339;DHT22;68636;52.704;6.536;2023-04-24T15:31:18;9.50;99.90
58339;DHT22;68636;52.704;6.536;2023-04-24T15:33:44;9.50;99.90
58339;DHT22;68636;52.704;6.536;2023-04-24T15:36:10;9.30;99.90
58339;DHT22;68636;52.704;6.536;2023-04-24T15:38:36;9.30;99.90
58339;DHT22;68636;52.704;6.536;2023-04-24T15:41:02;9.50;99.90
58339;DHT22;68636;52.704;6.536;2023-04-24T15:43:28;9.70;99.90
58339;DHT22;68636;52.704;6.536;2023-04-24T15:45:59;9.70;99.90
58339;DHT22;68636;52.704;6.536;2023-04-24T15:48:26;9.70;99.90
58339;DHT22;68636;52.704;6.536;2023-04-24T15:50:52;9.70;99.90
58339;DHT22;68636;52.704;6.536;2023-04-24T15:53:18;9.70;99.90
58339;DHT22;68636;52.704;6.536;2023-04-24T15:55:50;9.80;99.90
58339;DHT22;68636;52.704;6.536;2023-04-24T15:58:17;9.70;99.90
58339;DHT22;68636;52.704;6.536;2023-04-24T16:00:43;9.80;99.90
58339;DHT22;68636;52.704;6.536;2023-04-24T16:03:09;9.90;99.90